sensor_id;sensor_type;location;lat;lon;timestamp;P1;durP1;ratioP1;P2;durP2;ratioP2
46597;SDS011;32318;48.858;8.252;2022-07-09T00:06:02;9.32;;;1.55;;
46597;SDS011;32318;48.858;8.252;2022-07-09T00:14:03;6.53;;;1.75;;
46597;SDS011;32318;48.858;8.252;2022-07-09T00:22:03;4.75;;;1.52;;
46597;SDS011;32318;48.858;8.252;2022-07-09T00:30:05;6.75;;;1.80;;
46597;SDS011;32318;48.858;8.252;2022-07-09T00:38:06;4.35;;;1.40;;
46597;SDS011;32318;48.858;8.252;2022-07-09T00:46:06;5.57;;;1.83;;
46597;SDS011;32318;48.858;8.252;2022-07-09T00:54:07;5.35;;;1.60;;
46597;SDS011;32318;48.858;8.252;2022-07-09T01:02:08;7.60;;;1.75;;
46597;SDS011;32318;48.858;8.252;2022-07-09T01:10:10;4.70;;;1.70;;
46597;SDS011;32318;48.858;8.252;2022-07-09T01:18:11;3.72;;;1.58;;
46597;SDS011;32318;48.858;8.252;2022-07-09T01:26:12;5.78;;;1.65;;
46597;SDS011;32318;48.858;8.252;2022-07-09T01:34:12;6.60;;;2.00;;
46597;SDS011;32318;48.858;8.252;2022-07-09T01:42:13;5.03;;;1.58;;
46597;SDS011;32318;48.858;8.252;2022-07-09T01:50:13;6.68;;;1.80;;
46597;SDS011;32318;48.858;8.252;2022-07-09T01:58:14;9.25;;;1.70;;
46597;SDS011;32318;48.858;8.252;2022-07-09T02:06:14;5.13;;;1.60;;
46597;SDS011;32318;48.858;8.252;2022-07-09T02:14:15;7.50;;;2.00;;
46597;SDS011;32318;48.858;8.252;2022-07-09T02:22:15;6.43;;;1.85;;
46597;SDS011;32318;48.858;8.252;2022-07-09T02:30:15;4.90;;;1.80;;
46597;SDS011;32318;48.858;8.252;2022-07-09T02:38:16;4.53;;;1.97;;
46597;SDS011;32318;48.858;8.252;2022-07-09T02:46:16;3.33;;;1.42;;
46597;SDS011;32318;48.858;8.252;2022-07-09T02:54:16;4.50;;;1.70;;
46597;SDS011;32318;48.858;8.252;2022-07-09T03:02:17;7.43;;;1.90;;
46597;SDS011;32318;48.858;8.252;2022-07-09T03:10:17;7.43;;;2.10;;
46597;SDS011;32318;48.858;8.252;2022-07-09T03:18:17;3.85;;;1.70;;
46597;SDS011;32318;48.858;8.252;2022-07-09T03:26:17;6.65;;;1.67;;
46597;SDS011;32318;48.858;8.252;2022-07-09T03:34:18;6.78;;;1.92;;
46597;SDS011;32318;48.858;8.252;2022-07-09T03:42:18;5.93;;;1.70;;
46597;SDS011;32318;48.858;8.252;2022-07-09T03:50:18;8.63;;;2.03;;
46597;SDS011;32318;48.858;8.252;2022-07-09T03:58:19;5.07;;;1.70;;
46597;SDS011;32318;48.858;8.252;2022-07-09T04:06:19;4.53;;;1.80;;
46597;SDS011;32318;48.858;8.252;2022-07-09T04:14:20;12.85;;;1.80;;
46597;SDS011;32318;48.858;8.252;2022-07-09T04:22:20;4.97;;;1.73;;
46597;SDS011;32318;48.858;8.252;2022-07-09T04:30:20;4.90;;;1.75;;
46597;SDS011;32318;48.858;8.252;2022-07-09T04:38:21;9.48;;;1.83;;
46597;SDS011;32318;48.858;8.252;2022-07-09T04:46:21;7.90;;;1.80;;
46597;SDS011;32318;48.858;8.252;2022-07-09T04:54:22;5.43;;;2.03;;
46597;SDS011;32318;48.858;8.252;2022-07-09T05:02:22;4.18;;;1.80;;
46597;SDS011;32318;48.858;8.252;2022-07-09T05:10:22;7.18;;;1.95;;
46597;SDS011;32318;48.858;8.252;2022-07-09T05:18:22;5.97;;;1.95;;
46597;SDS011;32318;48.858;8.252;2022-07-09T05:26:23;23.08;;;2.22;;
46597;SDS011;32318;48.858;8.252;2022-07-09T05:34:23;3.03;;;1.67;;
46597;SDS011;32318;48.858;8.252;2022-07-09T05:42:24;7.43;;;1.67;;
46597;SDS011;32318;48.858;8.252;2022-07-09T05:50:24;5.95;;;1.55;;
46597;SDS011;32318;48.858;8.252;2022-07-09T05:58:25;9.45;;;2.67;;
46597;SDS011;32318;48.858;8.252;2022-07-09T06:06:25;3.72;;;1.60;;
46597;SDS011;32318;48.858;8.252;2022-07-09T06:14:25;10.73;;;2.10;;
46597;SDS011;32318;48.858;8.252;2022-07-09T06:22:26;10.25;;;1.80;;
46597;SDS011;32318;48.858;8.252;2022-07-09T06:30:26;11.43;;;2.08;;
46597;SDS011;32318;48.858;8.252;2022-07-09T06:38:29;10.98;;;2.63;;
46597;SDS011;32318;48.858;8.252;2022-07-09T06:46:29;6.68;;;2.00;;
46597;SDS011;32318;48.858;8.252;2022-07-09T06:54:30;12.23;;;2.03;;
46597;SDS011;32318;48.858;8.252;2022-07-09T07:02:30;6.35;;;1.60;;
46597;SDS011;32318;48.858;8.252;2022-07-09T07:10:30;8.35;;;2.08;;
46597;SDS011;32318;48.858;8.252;2022-07-09T07:18:31;5.68;;;1.65;;
46597;SDS011;32318;48.858;8.252;2022-07-09T07:26:31;6.72;;;1.83;;
46597;SDS011;32318;48.858;8.252;2022-07-09T07:34:32;8.52;;;1.90;;
46597;SDS011;32318;48.858;8.252;2022-07-09T07:42:32;7.38;;;2.35;;
46597;SDS011;32318;48.858;8.252;2022-07-09T07:50:32;5.70;;;1.55;;
46597;SDS011;32318;48.858;8.252;2022-07-09T07:58:35;7.22;;;1.77;;
46597;SDS011;32318;48.858;8.252;2022-07-09T08:06:36;9.43;;;1.40;;
46597;SDS011;32318;48.858;8.252;2022-07-09T08:14:36;14.80;;;2.25;;
46597;SDS011;32318;48.858;8.252;2022-07-09T08:22:36;15.20;;;1.60;;
46597;SDS011;32318;48.858;8.252;2022-07-09T08:30:37;5.78;;;1.75;;
46597;SDS011;32318;48.858;8.252;2022-07-09T08:38:37;4.95;;;1.50;;
46597;SDS011;32318;48.858;8.252;2022-07-09T08:46:38;3.97;;;1.20;;
46597;SDS011;32318;48.858;8.252;2022-07-09T08:54:39;11.63;;;1.83;;
46597;SDS011;32318;48.858;8.252;2022-07-09T09:02:42;4.47;;;1.40;;
46597;SDS011;32318;48.858;8.252;2022-07-09T09:10:44;3.95;;;1.17;;
46597;SDS011;32318;48.858;8.252;2022-07-09T09:18:47;7.47;;;1.60;;
46597;SDS011;32318;48.858;8.252;2022-07-09T09:26:49;7.55;;;1.23;;
46597;SDS011;32318;48.858;8.252;2022-07-09T09:34:50;7.13;;;1.33;;
46597;SDS011;32318;48.858;8.252;2022-07-09T09:42:51;5.32;;;1.20;;
46597;SDS011;32318;48.858;8.252;2022-07-09T09:50:58;3.05;;;1.10;;
46597;SDS011;32318;48.858;8.252;2022-07-09T09:59:01;7.18;;;1.35;;
46597;SDS011;32318;48.858;8.252;2022-07-09T10:07:02;5.95;;;1.30;;
46597;SDS011;32318;48.858;8.252;2022-07-09T10:15:19;7.18;;;1.10;;
46597;SDS011;32318;48.858;8.252;2022-07-09T10:23:21;4.60;;;0.90;;
46597;SDS011;32318;48.858;8.252;2022-07-09T10:31:24;5.35;;;1.25;;
46597;SDS011;32318;48.858;8.252;2022-07-09T10:39:25;2.80;;;0.90;;
46597;SDS011;32318;48.858;8.252;2022-07-09T10:47:36;4.68;;;0.93;;
46597;SDS011;32318;48.858;8.252;2022-07-09T10:55:40;2.33;;;1.10;;
46597;SDS011;32318;48.858;8.252;2022-07-09T11:03:46;13.00;;;1.05;;
46597;SDS011;32318;48.858;8.252;2022-07-09T11:11:49;4.13;;;0.90;;
46597;SDS011;32318;48.858;8.252;2022-07-09T11:19:49;6.60;;;1.00;;
46597;SDS011;32318;48.858;8.252;2022-07-09T11:27:50;3.88;;;1.00;;
46597;SDS011;32318;48.858;8.252;2022-07-09T11:35:50;2.28;;;0.68;;
46597;SDS011;32318;48.858;8.252;2022-07-09T11:43:51;2.70;;;1.00;;
46597;SDS011;32318;48.858;8.252;2022-07-09T11:51:52;1.77;;;0.73;;
46597;SDS011;32318;48.858;8.252;2022-07-09T11:59:52;6.10;;;0.93;;
46597;SDS011;32318;48.858;8.252;2022-07-09T12:07:53;5.93;;;0.98;;
46597;SDS011;32318;48.858;8.252;2022-07-09T12:15:53;3.30;;;1.00;;
46597;SDS011;32318;48.858;8.252;2022-07-09T12:23:54;6.85;;;1.10;;
46597;SDS011;32318;48.858;8.252;2022-07-09T12:31:54;3.25;;;0.82;;
46597;SDS011;32318;48.858;8.252;2022-07-09T12:39:54;5.30;;;1.40;;
46597;SDS011;32318;48.858;8.252;2022-07-09T12:47:55;4.20;;;0.88;;
46597;SDS011;32318;48.858;8.252;2022-07-09T12:55:55;4.45;;;1.10;;
46597;SDS011;32318;48.858;8.252;2022-07-09T13:03:55;5.85;;;1.10;;
46597;SDS011;32318;48.858;8.252;2022-07-09T13:11:56;2.67;;;0.90;;
46597;SDS011;32318;48.858;8.252;2022-07-09T13:19:56;2.13;;;0.70;;
46597;SDS011;32318;48.858;8.252;2022-07-09T13:27:56;3.55;;;0.82;;
46597;SDS011;32318;48.858;8.252;2022-07-09T13:35:57;3.67;;;1.00;;
46597;SDS011;32318;48.858;8.252;2022-07-09T13:43:57;4.73;;;1.00;;
46597;SDS011;32318;48.858;8.252;2022-07-09T13:51:57;5.00;;;1.02;;
46597;SDS011;32318;48.858;8.252;2022-07-09T13:59:57;4.18;;;0.82;;
46597;SDS011;32318;48.858;8.252;2022-07-09T14:07:58;2.03;;;0.90;;
46597;SDS011;32318;48.858;8.252;2022-07-09T14:15:58;2.67;;;0.95;;
46597;SDS011;32318;48.858;8.252;2022-07-09T14:24:00;3.53;;;1.08;;
46597;SDS011;32318;48.858;8.252;2022-07-09T14:41:09;2.40;;;0.88;;
46597;SDS011;32318;48.858;8.252;2022-07-09T14:49:09;3.10;;;1.08;;
46597;SDS011;32318;48.858;8.252;2022-07-09T14:57:10;2.78;;;0.80;;
46597;SDS011;32318;48.858;8.252;2022-07-09T15:05:10;5.45;;;1.27;;
46597;SDS011;32318;48.858;8.252;2022-07-09T15:13:11;4.38;;;1.10;;
46597;SDS011;32318;48.858;8.252;2022-07-09T15:21:12;11.50;;;0.98;;
46597;SDS011;32318;48.858;8.252;2022-07-09T15:29:12;4.70;;;1.00;;
46597;SDS011;32318;48.858;8.252;2022-07-09T15:37:13;5.80;;;1.00;;
46597;SDS011;32318;48.858;8.252;2022-07-09T15:45:13;5.32;;;1.08;;
46597;SDS011;32318;48.858;8.252;2022-07-09T15:53:15;4.38;;;0.70;;
46597;SDS011;32318;48.858;8.252;2022-07-09T16:01:15;4.15;;;0.82;;
46597;SDS011;32318;48.858;8.252;2022-07-09T16:09:15;3.10;;;0.90;;
46597;SDS011;32318;48.858;8.252;2022-07-09T16:17:16;9.88;;;1.00;;
46597;SDS011;32318;48.858;8.252;2022-07-09T16:25:16;1.73;;;0.75;;
46597;SDS011;32318;48.858;8.252;2022-07-09T16:33:18;3.72;;;1.65;;
46597;SDS011;32318;48.858;8.252;2022-07-09T16:41:18;4.80;;;1.13;;
46597;SDS011;32318;48.858;8.252;2022-07-09T16:49:19;3.83;;;0.97;;
46597;SDS011;32318;48.858;8.252;2022-07-09T16:57:19;2.25;;;0.90;;
46597;SDS011;32318;48.858;8.252;2022-07-09T17:05:19;2.10;;;0.70;;
46597;SDS011;32318;48.858;8.252;2022-07-09T17:13:20;3.85;;;1.35;;
46597;SDS011;32318;48.858;8.252;2022-07-09T17:21:20;9.03;;;1.30;;
46597;SDS011;32318;48.858;8.252;2022-07-09T17:29:21;10.02;;;1.08;;
46597;SDS011;32318;48.858;8.252;2022-07-09T17:37:21;2.42;;;0.90;;
46597;SDS011;32318;48.858;8.252;2022-07-09T17:45:21;5.47;;;1.20;;
46597;SDS011;32318;48.858;8.252;2022-07-09T17:53:22;1.90;;;0.83;;
46597;SDS011;32318;48.858;8.252;2022-07-09T18:01:22;3.95;;;0.77;;
46597;SDS011;32318;48.858;8.252;2022-07-09T18:09:22;2.33;;;1.02;;
46597;SDS011;32318;48.858;8.252;2022-07-09T18:17:23;4.53;;;0.97;;
46597;SDS011;32318;48.858;8.252;2022-07-09T18:25:23;2.97;;;1.10;;
46597;SDS011;32318;48.858;8.252;2022-07-09T18:33:24;4.57;;;1.10;;
46597;SDS011;32318;48.858;8.252;2022-07-09T18:41:24;8.23;;;1.67;;
46597;SDS011;32318;48.858;8.252;2022-07-09T18:49:24;13.48;;;1.48;;
46597;SDS011;32318;48.858;8.252;2022-07-09T18:57:24;3.97;;;1.33;;
46597;SDS011;32318;48.858;8.252;2022-07-09T19:05:25;3.85;;;1.20;;
46597;SDS011;32318;48.858;8.252;2022-07-09T19:13:25;2.95;;;1.27;;
46597;SDS011;32318;48.858;8.252;2022-07-09T19:21:27;6.60;;;1.30;;
46597;SDS011;32318;48.858;8.252;2022-07-09T19:29:29;9.15;;;2.15;;
46597;SDS011;32318;48.858;8.252;2022-07-09T19:37:29;13.45;;;1.80;;
46597;SDS011;32318;48.858;8.252;2022-07-09T19:45:30;12.48;;;1.80;;
46597;SDS011;32318;48.858;8.252;2022-07-09T19:53:30;6.03;;;1.67;;
46597;SDS011;32318;48.858;8.252;2022-07-09T20:01:30;8.90;;;2.00;;
46597;SDS011;32318;48.858;8.252;2022-07-09T20:09:30;7.03;;;2.30;;
46597;SDS011;32318;48.858;8.252;2022-07-09T20:17:31;8.45;;;2.00;;
46597;SDS011;32318;48.858;8.252;2022-07-09T20:25:31;6.82;;;2.10;;
46597;SDS011;32318;48.858;8.252;2022-07-09T20:33:31;5.97;;;2.35;;
46597;SDS011;32318;48.858;8.252;2022-07-09T20:41:32;4.38;;;2.30;;
46597;SDS011;32318;48.858;8.252;2022-07-09T20:49:32;10.77;;;2.30;;
46597;SDS011;32318;48.858;8.252;2022-07-09T20:57:32;12.93;;;2.60;;
46597;SDS011;32318;48.858;8.252;2022-07-09T21:05:33;8.75;;;2.40;;
46597;SDS011;32318;48.858;8.252;2022-07-09T21:13:33;6.03;;;2.60;;
46597;SDS011;32318;48.858;8.252;2022-07-09T21:21:34;7.85;;;2.40;;
46597;SDS011;32318;48.858;8.252;2022-07-09T21:29:34;5.25;;;2.20;;
46597;SDS011;32318;48.858;8.252;2022-07-09T21:37:35;8.80;;;2.47;;
46597;SDS011;32318;48.858;8.252;2022-07-09T21:45:35;23.63;;;2.58;;
46597;SDS011;32318;48.858;8.252;2022-07-09T21:53:36;5.95;;;2.13;;
46597;SDS011;32318;48.858;8.252;2022-07-09T22:01:36;5.47;;;2.20;;
46597;SDS011;32318;48.858;8.252;2022-07-09T22:09:37;4.82;;;2.03;;
46597;SDS011;32318;48.858;8.252;2022-07-09T22:17:37;10.52;;;2.45;;
46597;SDS011;32318;48.858;8.252;2022-07-09T22:25:37;6.13;;;2.40;;
46597;SDS011;32318;48.858;8.252;2022-07-09T22:33:38;9.27;;;2.35;;
46597;SDS011;32318;48.858;8.252;2022-07-09T22:41:38;9.20;;;2.50;;
46597;SDS011;32318;48.858;8.252;2022-07-09T22:49:38;10.57;;;2.30;;
46597;SDS011;32318;48.858;8.252;2022-07-09T22:57:39;6.15;;;2.60;;
46597;SDS011;32318;48.858;8.252;2022-07-09T23:05:39;6.45;;;2.92;;
46597;SDS011;32318;48.858;8.252;2022-07-09T23:13:39;4.88;;;2.65;;
46597;SDS011;32318;48.858;8.252;2022-07-09T23:21:40;15.15;;;2.75;;
46597;SDS011;32318;48.858;8.252;2022-07-09T23:29:40;6.53;;;2.47;;
46597;SDS011;32318;48.858;8.252;2022-07-09T23:37:40;17.08;;;2.83;;
46597;SDS011;32318;48.858;8.252;2022-07-09T23:45:40;12.82;;;3.10;;
46597;SDS011;32318;48.858;8.252;2022-07-09T23:53:41;8.85;;;2.97;;
